createdAt,value
2016-04-16T00:00:04.366Z,0
2016-04-16T00:01:04.399Z,0
2016-04-16T00:02:04.418Z,0
2016-04-16T00:03:04.436Z,0
2016-04-16T00:04:04.455Z,0
2016-04-16T00:05:04.473Z,0
2016-04-16T00:06:04.507Z,0
2016-04-16T00:07:04.619Z,0
2016-04-16T00:08:04.543Z,0
2016-04-16T00:09:04.765Z,0
2016-04-16T00:10:04.580Z,0
2016-04-16T00:11:04.613Z,0
2016-04-16T00:12:04.741Z,0
2016-04-16T00:13:04.665Z,0
2016-04-16T00:14:04.668Z,0
2016-04-16T00:15:04.687Z,0
2016-04-16T00:16:04.706Z,0
2016-04-16T00:17:04.724Z,0
2016-04-16T00:18:04.743Z,0
2016-04-16T00:19:04.776Z,0
2016-04-16T00:20:04.513Z,0
2016-04-16T00:21:04.812Z,0
2016-04-16T00:22:04.831Z,0
2016-04-16T00:23:04.850Z,0
2016-04-16T00:24:04.868Z,0
2016-04-16T00:25:04.887Z,0
2016-04-16T00:26:04.920Z,0
2016-04-16T00:27:04.939Z,0
2016-04-16T00:28:04.972Z,0
2016-04-16T00:29:04.991Z,0
2016-04-16T00:30:04.994Z,0
2016-04-16T00:31:05.011Z,0
2016-04-16T00:32:05.030Z,0
2016-04-16T00:33:05.047Z,0
2016-04-16T00:34:05.066Z,0
2016-04-16T00:35:05.194Z,0
2016-04-16T00:36:09.260Z,0
2016-04-16T00:37:05.138Z,0
2016-04-16T00:38:05.155Z,0
2016-04-16T00:39:05.174Z,0
2016-04-16T00:40:05.191Z,0
2016-04-16T00:41:05.210Z,0
2016-04-16T00:42:05.088Z,0
2016-04-16T00:43:05.246Z,0
2016-04-16T00:44:05.281Z,0
2016-04-16T00:45:05.298Z,0
2016-04-16T00:46:05.317Z,0
2016-04-16T00:47:08.351Z,0
2016-04-16T00:48:05.354Z,0
2016-04-16T00:49:05.373Z,0
2016-04-16T00:50:05.548Z,0
2016-04-16T00:51:05.425Z,0
2016-04-16T00:52:05.443Z,0
2016-04-16T00:53:05.461Z,0
2016-04-16T00:54:05.496Z,0
2016-04-16T00:55:05.498Z,0
2016-04-16T00:56:05.517Z,0
2016-04-16T00:57:05.535Z,0
2016-04-16T00:58:05.569Z,0
2016-04-16T00:59:05.587Z,0
2016-04-16T01:00:05.620Z,0
2016-04-16T01:01:05.639Z,0
2016-04-16T01:02:05.657Z,0
2016-04-16T01:03:05.660Z,0
2016-04-16T01:04:05.678Z,0
2016-04-16T01:05:05.806Z,0
2016-04-16T01:06:05.716Z,0
2016-04-16T01:07:05.749Z,0
2016-04-16T01:08:05.783Z,0
2016-04-16T01:09:05.785Z,0
2016-04-16T01:10:05.804Z,0
2016-04-16T01:11:05.822Z,0
2016-04-16T01:12:05.840Z,0
2016-04-16T01:13:05.874Z,0
2016-04-16T01:14:05.892Z,0
2016-04-16T01:15:05.896Z,0
2016-04-16T01:16:05.913Z,0
2016-04-16T01:17:05.963Z,0
2016-04-16T01:18:05.981Z,0
2016-04-16T01:19:05.984Z,0
2016-04-16T01:20:06.190Z,0
2016-04-16T01:21:06.036Z,0
2016-04-16T01:22:06.055Z,0
2016-04-16T01:23:06.073Z,0
2016-04-16T01:24:06.092Z,0
2016-04-16T01:25:06.109Z,0
2016-04-16T01:26:05.987Z,0
2016-04-16T01:27:06.146Z,0
2016-04-16T01:28:06.180Z,0
2016-04-16T01:29:06.198Z,0
2016-04-16T01:30:06.217Z,0
2016-04-16T01:31:06.235Z,0
2016-04-16T01:32:06.269Z,0
2016-04-16T01:33:06.272Z,0
2016-04-16T01:34:06.290Z,0
2016-04-16T01:35:06.183Z,0
2016-04-16T01:36:06.327Z,0
2016-04-16T01:37:06.344Z,0
2016-04-16T01:38:06.379Z,0
2016-04-16T01:39:06.397Z,0
2016-04-16T01:40:06.415Z,0
2016-04-16T01:41:06.434Z,0
2016-04-16T01:42:06.468Z,0
2016-04-16T01:43:06.470Z,0
2016-04-16T01:44:06.504Z,0
2016-04-16T01:45:06.507Z,0
2016-04-16T01:46:06.526Z,0
2016-04-16T01:47:06.560Z,0
2016-04-16T01:48:06.579Z,0
2016-04-16T01:49:06.612Z,0
2016-04-16T01:50:06.615Z,0
2016-04-16T01:51:06.648Z,0
2016-04-16T01:52:06.682Z,0
2016-04-16T01:53:06.684Z,0
2016-04-16T01:54:06.703Z,0
2016-04-16T01:55:06.722Z,0
2016-04-16T01:56:06.740Z,0
2016-04-16T01:57:06.759Z,0
2016-04-16T01:58:06.761Z,0
2016-04-16T01:59:06.811Z,0
2016-04-16T02:00:06.828Z,0
2016-04-16T02:01:06.847Z,0
2016-04-16T02:02:06.865Z,0
2016-04-16T02:03:06.887Z,0
2016-04-16T02:04:06.890Z,0
2016-04-16T02:05:06.923Z,0
2016-04-16T02:06:06.942Z,0
2016-04-16T02:07:06.961Z,0
2016-04-16T02:08:06.979Z,0
2016-04-16T02:09:06.997Z,0
2016-04-16T02:10:07.031Z,0
2016-04-16T02:11:07.050Z,0
2016-04-16T02:12:07.053Z,0
2016-04-16T02:13:07.087Z,0
2016-04-16T02:14:07.105Z,0
2016-04-16T02:15:07.123Z,0
2016-04-16T02:16:07.157Z,0
2016-04-16T02:17:07.175Z,0
2016-04-16T02:18:07.177Z,0
2016-04-16T02:19:07.196Z,0
2016-04-16T02:20:07.214Z,0
2016-04-16T02:21:07.264Z,0
2016-04-16T02:22:07.268Z,0
2016-04-16T02:23:07.288Z,0
2016-04-16T02:24:07.321Z,0
2016-04-16T02:25:07.324Z,0
2016-04-16T02:26:07.342Z,0
2016-04-16T02:27:07.360Z,0
2016-04-16T02:28:07.379Z,0
2016-04-16T02:29:07.397Z,0
2016-04-16T02:30:07.416Z,0
2016-04-16T02:31:07.449Z,0
2016-04-16T02:32:07.468Z,0
2016-04-16T02:33:07.486Z,0
2016-04-16T02:34:07.520Z,0
2016-04-16T02:35:07.538Z,0
2016-04-16T02:36:07.541Z,0
2016-04-16T02:37:07.559Z,0
2016-04-16T02:38:07.593Z,0
2016-04-16T02:39:07.612Z,0
2016-04-16T02:40:07.630Z,0
2016-04-16T02:41:07.648Z,0
2016-04-16T02:42:07.666Z,0
2016-04-16T02:43:07.700Z,0
2016-04-16T02:44:07.702Z,0
2016-04-16T02:45:07.777Z,0
2016-04-16T02:46:07.839Z,0
2016-04-16T02:47:07.900Z,0
2016-04-16T02:48:07.977Z,0
2016-04-16T02:49:08.022Z,0
2016-04-16T02:50:08.057Z,0
2016-04-16T02:51:08.090Z,0
2016-04-16T02:52:08.139Z,0
2016-04-16T02:53:08.157Z,0
2016-04-16T02:54:08.208Z,0
2016-04-16T02:55:08.231Z,0
2016-04-16T02:56:08.255Z,0
2016-04-16T02:57:08.280Z,0
2016-04-16T02:58:08.303Z,0
2016-04-16T02:59:08.327Z,0
2016-04-16T03:00:08.347Z,0
2016-04-16T03:01:08.384Z,0
2016-04-16T03:02:08.403Z,0
2016-04-16T03:03:08.269Z,0
2016-04-16T03:04:08.429Z,0
2016-04-16T03:05:08.307Z,0
2016-04-16T03:06:08.483Z,0
2016-04-16T03:07:08.517Z,0
2016-04-16T03:08:08.521Z,0
2016-04-16T03:09:08.555Z,0
2016-04-16T03:10:08.590Z,0
2016-04-16T03:11:08.608Z,0
2016-04-16T03:12:08.628Z,0
2016-04-16T03:13:08.615Z,0
2016-04-16T03:14:08.649Z,0
2016-04-16T03:15:08.667Z,0
2016-04-16T03:16:08.701Z,0
2016-04-16T03:17:08.720Z,0
2016-04-16T03:18:08.738Z,0
2016-04-16T03:19:08.756Z,0
2016-04-16T03:20:08.758Z,0
2016-04-16T03:21:08.840Z,0
2016-04-16T03:22:08.811Z,0
2016-04-16T03:23:08.830Z,0
2016-04-16T03:24:08.847Z,0
2016-04-16T03:25:08.882Z,0
2016-04-16T03:26:08.743Z,0
2016-04-16T03:27:08.902Z,0
2016-04-16T03:28:08.936Z,0
2016-04-16T03:29:08.939Z,0
2016-04-16T03:30:08.974Z,0
2016-04-16T03:31:08.991Z,0
2016-04-16T03:32:09.026Z,0
2016-04-16T03:33:09.044Z,0
2016-04-16T03:34:09.077Z,0
2016-04-16T03:35:09.080Z,0
2016-04-16T03:36:09.082Z,0
2016-04-16T03:37:09.117Z,0
2016-04-16T03:38:09.135Z,0
2016-04-16T03:39:09.154Z,0
2016-04-16T03:40:09.172Z,0
2016-04-16T03:41:09.190Z,0
2016-04-16T03:42:09.224Z,0
2016-04-16T03:43:09.226Z,0
2016-04-16T03:44:09.246Z,0
2016-04-16T03:45:09.123Z,0
2016-04-16T03:46:09.298Z,0
2016-04-16T03:47:09.316Z,0
2016-04-16T03:48:09.319Z,0
2016-04-16T03:49:09.353Z,0
2016-04-16T03:50:09.370Z,0
2016-04-16T03:51:09.389Z,0
2016-04-16T03:52:09.407Z,0
2016-04-16T03:53:09.426Z,0
2016-04-16T03:54:09.460Z,0
2016-04-16T03:55:09.478Z,0
2016-04-16T03:56:09.480Z,0
2016-04-16T03:57:09.546Z,0
2016-04-16T03:58:09.533Z,0
2016-04-16T03:59:09.551Z,0
2016-04-16T04:00:09.569Z,0
2016-04-16T04:01:09.587Z,0
2016-04-16T04:02:09.606Z,0
2016-04-16T04:03:09.624Z,0
2016-04-16T04:04:09.658Z,0
2016-04-16T04:05:09.677Z,0
2016-04-16T04:06:09.538Z,0
2016-04-16T04:07:09.713Z,0
2016-04-16T04:08:09.731Z,0
2016-04-16T04:09:09.750Z,0
2016-04-16T04:10:09.768Z,0
2016-04-16T04:11:09.787Z,0
2016-04-16T04:12:09.821Z,0
2016-04-16T04:13:09.839Z,0
2016-04-16T04:14:09.904Z,0
2016-04-16T04:15:09.875Z,0
2016-04-16T04:16:09.894Z,0
2016-04-16T04:17:09.912Z,0
2016-04-16T04:18:09.945Z,0
2016-04-16T04:19:09.948Z,0
2016-04-16T04:20:09.967Z,0
2016-04-16T04:21:10.001Z,0
2016-04-16T04:22:10.004Z,0
2016-04-16T04:23:10.038Z,0
2016-04-16T04:24:10.056Z,0
2016-04-16T04:25:10.089Z,0
2016-04-16T04:26:10.092Z,0
2016-04-16T04:27:10.110Z,0
2016-04-16T04:28:10.144Z,0
2016-04-16T04:29:10.163Z,0
2016-04-16T04:30:10.182Z,0
2016-04-16T04:31:10.200Z,0
2016-04-16T04:32:10.218Z,0
2016-04-16T04:33:10.236Z,0
2016-04-16T04:34:10.254Z,0
2016-04-16T04:35:10.289Z,0
2016-04-16T04:36:10.307Z,0
2016-04-16T04:37:10.341Z,0
2016-04-16T04:38:10.344Z,0
2016-04-16T04:39:10.362Z,0
2016-04-16T04:40:10.396Z,0
2016-04-16T04:41:10.398Z,0
2016-04-16T04:42:10.417Z,0
2016-04-16T04:43:10.434Z,0
2016-04-16T04:44:10.454Z,0
2016-04-16T04:45:10.487Z,0
2016-04-16T04:46:10.506Z,0
2016-04-16T04:47:10.524Z,0
2016-04-16T04:48:10.542Z,0
2016-04-16T04:49:10.561Z,0
2016-04-16T04:50:10.594Z,0
2016-04-16T04:51:10.738Z,0
2016-04-16T04:52:10.616Z,0
2016-04-16T04:53:10.650Z,0
2016-04-16T04:54:10.668Z,0
2016-04-16T04:55:10.702Z,0
2016-04-16T04:56:10.705Z,0
2016-04-16T04:57:10.722Z,0
2016-04-16T04:58:10.741Z,0
2016-04-16T04:59:10.774Z,0
2016-04-16T05:00:10.778Z,0
2016-04-16T05:01:10.811Z,5
2016-04-16T05:02:10.830Z,5
2016-04-16T05:03:10.849Z,5
2016-04-16T05:04:10.866Z,5
2016-04-16T05:05:10.901Z,5
2016-04-16T05:06:10.965Z,5
2016-04-16T05:07:10.937Z,5
2016-04-16T05:08:10.943Z,5
2016-04-16T05:09:10.977Z,5
2016-04-16T05:10:10.995Z,5
2016-04-16T05:11:11.013Z,5
2016-04-16T05:12:11.015Z,5
2016-04-16T05:13:11.051Z,5
2016-04-16T05:14:11.068Z,5
2016-04-16T05:15:11.102Z,5
2016-04-16T05:16:11.105Z,5
2016-04-16T05:17:11.154Z,5
2016-04-16T05:18:11.156Z,5
2016-04-16T05:19:11.175Z,5
2016-04-16T05:20:11.209Z,5
2016-04-16T05:21:11.306Z,5
2016-04-16T05:22:11.231Z,5
2016-04-16T05:23:11.265Z,5
2016-04-16T05:24:11.267Z,5
2016-04-16T05:25:11.301Z,5
2016-04-16T05:26:11.320Z,5
2016-04-16T05:27:11.353Z,5
2016-04-16T05:28:11.355Z,5
2016-04-16T05:29:11.375Z,5
2016-04-16T05:30:11.392Z,5
2016-04-16T05:31:11.411Z,5
2016-04-16T05:32:11.445Z,5
2016-04-16T05:33:11.448Z,0
2016-04-16T05:34:11.497Z,0
2016-04-16T05:35:11.499Z,0
2016-04-16T05:36:11.518Z,0
2016-04-16T05:37:11.630Z,0
2016-04-16T05:38:11.930Z,0
2016-04-16T05:39:11.573Z,0
2016-04-16T05:40:11.591Z,0
2016-04-16T05:41:11.610Z,0
2016-04-16T05:42:11.644Z,0
2016-04-16T05:43:11.693Z,0
2016-04-16T05:44:11.680Z,5
2016-04-16T05:45:11.823Z,5
2016-04-16T05:46:11.732Z,5
2016-04-16T05:47:11.845Z,5
2016-04-16T05:48:11.862Z,5
2016-04-16T05:49:11.866Z,5
2016-04-16T05:50:11.884Z,5
2016-04-16T05:51:11.949Z,5
2016-04-16T05:52:11.889Z,0
2016-04-16T05:53:11.892Z,5
2016-04-16T05:54:11.989Z,0
2016-04-16T05:55:11.897Z,0
2016-04-16T05:56:11.931Z,0
2016-04-16T05:57:11.934Z,0
2016-04-16T05:58:11.967Z,5
2016-04-16T05:59:12.064Z,5
2016-04-16T06:00:12.097Z,5
2016-04-16T06:01:12.101Z,5
2016-04-16T06:02:12.103Z,10
2016-04-16T06:03:12.060Z,10
2016-04-16T06:04:12.093Z,10
2016-04-16T06:05:12.158Z,10
2016-04-16T06:06:12.271Z,10
2016-04-16T06:07:12.241Z,10
2016-04-16T06:08:12.494Z,10
2016-04-16T06:09:12.279Z,10
2016-04-16T06:10:12.281Z,10
2016-04-16T06:11:12.299Z,10
2016-04-16T06:12:12.318Z,10
2016-04-16T06:13:12.352Z,10
2016-04-16T06:14:12.480Z,10
2016-04-16T06:15:12.326Z,10
2016-04-16T06:16:12.345Z,10
2016-04-16T06:17:12.363Z,15
2016-04-16T06:18:12.366Z,15
2016-04-16T06:19:12.399Z,15
2016-04-16T06:20:12.434Z,15
2016-04-16T06:21:12.998Z,15
2016-04-16T06:22:12.454Z,15
2016-04-16T06:23:12.488Z,15
2016-04-16T06:24:12.507Z,15
2016-04-16T06:25:12.509Z,15
2016-04-16T06:26:12.543Z,15
2016-04-16T06:27:12.578Z,15
2016-04-16T06:28:12.580Z,15
2016-04-16T06:29:12.613Z,15
2016-04-16T06:30:12.617Z,15
2016-04-16T06:31:12.650Z,15
2016-04-16T06:32:12.794Z,15
2016-04-16T06:33:12.796Z,15
2016-04-16T06:34:12.814Z,15
2016-04-16T06:35:12.802Z,15
2016-04-16T06:36:12.835Z,15
2016-04-16T06:37:12.855Z,15
2016-04-16T06:38:13.200Z,15
2016-04-16T06:39:12.860Z,15
2016-04-16T06:40:12.877Z,15
2016-04-16T06:41:12.865Z,15
2016-04-16T06:42:12.946Z,15
2016-04-16T06:43:12.886Z,15
2016-04-16T06:44:12.967Z,15
2016-04-16T06:45:12.969Z,15
2016-04-16T06:46:12.972Z,15
2016-04-16T06:47:13.115Z,15
2016-04-16T06:48:13.102Z,15
2016-04-16T06:49:12.965Z,20
2016-04-16T06:50:12.982Z,20
2016-04-16T06:51:13.110Z,15
2016-04-16T06:52:13.160Z,15
2016-04-16T06:53:13.163Z,15
2016-04-16T06:54:13.181Z,15
2016-04-16T06:55:13.153Z,15
2016-04-16T06:56:13.171Z,15
2016-04-16T06:57:13.189Z,15
2016-04-16T06:58:13.208Z,15
2016-04-16T06:59:13.226Z,15
2016-04-16T07:00:13.103Z,15
2016-04-16T07:01:13.278Z,15
2016-04-16T07:02:13.297Z,15
2016-04-16T07:03:13.314Z,15
2016-04-16T07:04:13.349Z,15
2016-04-16T07:05:13.352Z,15
2016-04-16T07:06:13.307Z,15
2016-04-16T07:07:13.388Z,15
2016-04-16T07:08:13.406Z,15
2016-04-16T07:09:13.471Z,15
2016-04-16T07:10:13.458Z,20
2016-04-16T07:11:13.476Z,20
2016-04-16T07:12:13.558Z,15
2016-04-16T07:13:13.561Z,15
2016-04-16T07:14:13.546Z,15
2016-04-16T07:15:13.550Z,15
2016-04-16T07:16:13.584Z,10
2016-04-16T07:17:13.712Z,10
2016-04-16T07:18:13.746Z,10
2016-04-16T07:19:13.732Z,10
2016-04-16T07:20:13.767Z,10
2016-04-16T07:21:13.644Z,10
2016-04-16T07:22:14.100Z,10
2016-04-16T07:23:13.790Z,10
2016-04-16T07:24:13.792Z,10
2016-04-16T07:25:13.795Z,10
2016-04-16T07:26:13.798Z,10
2016-04-16T07:27:13.942Z,10
2016-04-16T07:28:13.991Z,10
2016-04-16T07:29:13.994Z,10
2016-04-16T07:30:14.012Z,15
2016-04-16T07:31:14.015Z,15
2016-04-16T07:32:14.065Z,15
2016-04-16T07:33:14.036Z,15
2016-04-16T07:34:14.055Z,15
2016-04-16T07:35:13.932Z,15
2016-04-16T07:36:14.060Z,15
2016-04-16T07:37:14.078Z,20
2016-04-16T07:38:14.065Z,20
2016-04-16T07:39:14.099Z,20
2016-04-16T07:40:14.101Z,20
2016-04-16T07:41:14.119Z,25
2016-04-16T07:42:14.139Z,20
2016-04-16T07:43:14.156Z,25
2016-04-16T07:44:14.174Z,25
2016-04-16T07:45:14.209Z,25
2016-04-16T07:46:14.227Z,30
2016-04-16T07:47:14.246Z,30
2016-04-16T07:48:14.264Z,35
2016-04-16T07:49:14.282Z,35
2016-04-16T07:50:14.316Z,35
2016-04-16T07:51:14.365Z,30
2016-04-16T07:52:14.353Z,30
2016-04-16T07:53:14.387Z,30
2016-04-16T07:54:14.390Z,30
2016-04-16T07:55:14.470Z,30
2016-04-16T07:56:14.551Z,30
2016-04-16T07:57:14.460Z,25
2016-04-16T07:58:14.588Z,25
2016-04-16T07:59:14.652Z,25
2016-04-16T08:00:14.655Z,20
2016-04-16T08:01:14.549Z,20
2016-04-16T08:02:14.567Z,20
2016-04-16T08:03:14.600Z,20
2016-04-16T08:04:14.619Z,20
2016-04-16T08:05:14.716Z,20
2016-04-16T08:06:14.703Z,20
2016-04-16T08:07:14.721Z,20
2016-04-16T08:08:14.708Z,20
2016-04-16T08:09:14.727Z,20
2016-04-16T08:10:14.855Z,20
2016-04-16T08:11:14.872Z,20
2016-04-16T08:12:14.875Z,20
2016-04-16T08:13:14.924Z,20
2016-04-16T08:14:14.755Z,25
2016-04-16T08:15:14.930Z,25
2016-04-16T08:16:14.932Z,25
2016-04-16T08:17:15.004Z,25
2016-04-16T08:18:14.959Z,25
2016-04-16T08:19:14.993Z,25
2016-04-16T08:20:15.012Z,25
2016-04-16T08:21:15.014Z,25
2016-04-16T08:22:15.016Z,25
2016-04-16T08:23:15.020Z,25
2016-04-16T08:24:15.037Z,25
2016-04-16T08:25:15.087Z,25
2016-04-16T08:26:15.089Z,25
2016-04-16T08:27:15.108Z,25
2016-04-16T08:28:15.126Z,25
2016-04-16T08:29:15.175Z,25
2016-04-16T08:30:15.178Z,25
2016-04-16T08:31:15.197Z,20
2016-04-16T08:32:15.231Z,20
2016-04-16T08:33:15.249Z,20
2016-04-16T08:34:15.267Z,20
2016-04-16T08:35:15.286Z,20
2016-04-16T08:36:15.304Z,20
2016-04-16T08:37:15.338Z,20
2016-04-16T08:38:15.481Z,20
2016-04-16T08:39:15.468Z,20
2016-04-16T08:40:15.502Z,20
2016-04-16T08:41:15.521Z,20
2016-04-16T08:42:15.523Z,20
2016-04-16T08:43:15.541Z,20
2016-04-16T08:44:15.372Z,25
2016-04-16T08:45:15.532Z,25
2016-04-16T08:46:15.550Z,25
2016-04-16T08:47:15.615Z,25
2016-04-16T08:48:15.618Z,25
2016-04-16T08:49:15.620Z,25
2016-04-16T08:50:15.654Z,25
2016-04-16T08:51:15.641Z,25
2016-04-16T08:52:15.769Z,25
2016-04-16T08:53:15.771Z,25
2016-04-16T08:54:15.774Z,25
2016-04-16T08:55:15.809Z,25
2016-04-16T08:56:15.826Z,25
2016-04-16T08:57:15.829Z,25
2016-04-16T08:58:15.847Z,25
2016-04-16T08:59:15.834Z,25
2016-04-16T09:00:15.836Z,25
2016-04-16T09:01:15.856Z,20
2016-04-16T09:02:15.905Z,25
2016-04-16T09:03:15.002Z,25
2016-04-16T09:04:15.926Z,25
2016-04-16T09:05:15.960Z,25
2016-04-16T09:06:15.963Z,25
2016-04-16T09:07:15.981Z,30
2016-04-16T09:08:16.016Z,30
2016-04-16T09:09:16.143Z,30
2016-04-16T09:10:16.161Z,30
2016-04-16T09:11:16.163Z,30
2016-04-16T09:12:16.182Z,30
2016-04-16T09:13:16.325Z,30
2016-04-16T09:14:16.327Z,30
2016-04-16T09:15:16.346Z,30
2016-04-16T09:16:16.318Z,30
2016-04-16T09:17:16.352Z,30
2016-04-16T09:18:16.355Z,30
2016-04-16T09:19:16.372Z,30
2016-04-16T09:20:16.359Z,30
2016-04-16T09:21:16.362Z,35
2016-04-16T09:22:16.506Z,30
2016-04-16T09:23:16.523Z,30
2016-04-16T09:24:16.527Z,30
2016-04-16T09:25:16.498Z,30
2016-04-16T09:26:16.485Z,30
2016-04-16T09:27:16.503Z,25
2016-04-16T09:28:16.537Z,25
2016-04-16T09:29:16.540Z,30
2016-04-16T09:30:16.543Z,30
2016-04-16T09:31:16.546Z,30
2016-04-16T09:32:16.564Z,35
2016-04-16T09:33:16.583Z,35
2016-04-16T09:34:16.678Z,35
2016-04-16T09:35:16.713Z,40
2016-04-16T09:36:16.715Z,40
2016-04-16T09:37:16.733Z,40
2016-04-16T09:38:16.736Z,40
2016-04-16T09:39:16.739Z,40
2016-04-16T09:40:16.742Z,40
2016-04-16T09:41:16.760Z,40
2016-04-16T09:42:16.778Z,40
2016-04-16T09:43:16.765Z,40
2016-04-16T09:44:16.908Z,40
2016-04-16T09:45:16.910Z,40
2016-04-16T09:46:16.851Z,45
2016-04-16T09:47:16.963Z,45
2016-04-16T09:48:16.966Z,45
2016-04-16T09:49:17.000Z,45
2016-04-16T09:50:17.018Z,45
2016-04-16T09:51:17.037Z,45
2016-04-16T09:52:17.024Z,50
2016-04-16T09:53:17.043Z,50
2016-04-16T09:54:17.045Z,50
2016-04-16T09:55:16.907Z,50
2016-04-16T09:56:17.081Z,50
2016-04-16T09:57:17.115Z,55
2016-04-16T09:58:17.118Z,55
2016-04-16T09:59:17.136Z,50
2016-04-16T10:00:17.358Z,40
2016-04-16T10:01:17.266Z,35
2016-04-16T10:02:17.411Z,35
2016-04-16T10:03:17.414Z,40
2016-04-16T10:04:17.431Z,40
2016-04-16T10:05:17.433Z,35
2016-04-16T10:06:17.436Z,40
2016-04-16T10:07:17.439Z,40
2016-04-16T10:08:17.458Z,45
2016-04-16T10:09:17.476Z,45
2016-04-16T10:10:17.463Z,50
2016-04-16T10:11:17.310Z,45
2016-04-16T10:12:17.531Z,35
2016-04-16T10:13:17.486Z,20
2016-04-16T10:14:17.474Z,10
2016-04-16T10:15:17.492Z,5
2016-04-16T10:16:17.527Z,5
2016-04-16T10:17:17.544Z,10
2016-04-16T10:18:17.563Z,15
2016-04-16T10:19:17.706Z,25
2016-04-16T10:20:17.724Z,40
2016-04-16T10:21:17.757Z,30
2016-04-16T10:22:17.651Z,15
2016-04-16T10:23:17.795Z,10
2016-04-16T10:24:17.813Z,10
2016-04-16T10:25:17.848Z,20
2016-04-16T10:26:17.834Z,25
2016-04-16T10:27:17.853Z,25
2016-04-16T10:28:17.855Z,35
2016-04-16T10:29:17.873Z,30
2016-04-16T10:30:17.875Z,30
2016-04-16T10:31:17.878Z,35
2016-04-16T10:32:17.991Z,35
2016-04-16T10:33:18.009Z,30
2016-04-16T10:34:18.011Z,25
2016-04-16T10:35:18.045Z,25
2016-04-16T10:36:17.986Z,30
2016-04-16T10:37:17.989Z,25
2016-04-16T10:38:18.023Z,25
2016-04-16T10:39:18.041Z,30
2016-04-16T10:40:18.059Z,25
2016-04-16T10:41:18.093Z,25
2016-04-16T10:42:18.111Z,25
2016-04-16T10:43:18.146Z,25
2016-04-16T10:44:18.180Z,30
2016-04-16T10:45:18.182Z,30
2016-04-16T10:46:18.185Z,35
2016-04-16T10:47:18.219Z,40
2016-04-16T10:48:18.237Z,40
2016-04-16T10:49:18.380Z,40
2016-04-16T10:50:18.367Z,35
2016-04-16T10:51:18.526Z,35
2016-04-16T10:52:18.544Z,35
2016-04-16T10:53:18.562Z,35
2016-04-16T10:54:18.565Z,35
2016-04-16T10:55:18.553Z,35
2016-04-16T10:56:18.570Z,35
2016-04-16T10:57:18.573Z,35
2016-04-16T10:58:18.592Z,35
2016-04-16T10:59:18.595Z,30
2016-04-16T11:00:18.598Z,25
2016-04-16T11:01:18.741Z,25
2016-04-16T11:02:18.743Z,25
2016-04-16T11:03:18.653Z,20
2016-04-16T11:04:18.702Z,25
2016-04-16T11:05:18.720Z,25
2016-04-16T11:06:18.738Z,15
2016-04-16T11:07:18.772Z,10
2016-04-16T11:08:18.713Z,10
2016-04-16T11:09:18.716Z,10
2016-04-16T11:10:18.844Z,15
2016-04-16T11:11:18.877Z,25
2016-04-16T11:12:18.880Z,25
2016-04-16T11:13:18.897Z,25
2016-04-16T11:14:18.947Z,25
2016-04-16T11:15:18.856Z,20
2016-04-16T11:16:19.093Z,20
2016-04-16T11:17:18.737Z,20
2016-04-16T11:18:18.927Z,20
2016-04-16T11:19:18.976Z,20
2016-04-16T11:20:19.041Z,20
2016-04-16T11:21:18.873Z,20
2016-04-16T11:22:19.063Z,25
2016-04-16T11:23:19.096Z,25
2016-04-16T11:24:19.084Z,25
2016-04-16T11:25:19.087Z,25
2016-04-16T11:26:19.104Z,25
2016-04-16T11:27:19.123Z,20
2016-04-16T11:28:19.188Z,20
2016-04-16T11:29:19.175Z,20
2016-04-16T11:30:19.209Z,20
2016-04-16T11:31:19.227Z,20
2016-04-16T11:32:19.246Z,15
2016-04-16T11:33:19.264Z,15
2016-04-16T11:34:19.283Z,15
2016-04-16T11:35:19.317Z,20
2016-04-16T11:36:19.334Z,20
2016-04-16T11:37:19.525Z,20
2016-04-16T11:38:19.387Z,20
2016-04-16T11:39:19.405Z,25
2016-04-16T11:40:19.549Z,25
2016-04-16T11:41:19.536Z,25
2016-04-16T11:42:19.569Z,25
2016-04-16T11:43:19.588Z,30
2016-04-16T11:44:19.513Z,30
2016-04-16T11:45:19.655Z,30
2016-04-16T11:46:19.658Z,30
2016-04-16T11:47:19.693Z,30
2016-04-16T11:48:19.726Z,30
2016-04-16T11:49:19.713Z,35
2016-04-16T11:50:20.076Z,35
2016-04-16T11:51:20.137Z,35
2016-04-16T11:52:20.044Z,35
2016-04-16T11:53:19.919Z,40
2016-04-16T11:54:20.074Z,40
2016-04-16T11:55:19.980Z,35
2016-04-16T11:56:20.063Z,40
2016-04-16T11:57:19.909Z,45
2016-04-16T11:58:20.099Z,45
2016-04-16T11:59:20.149Z,45
2016-04-16T12:00:20.167Z,45
2016-04-16T12:01:20.316Z,45
2016-04-16T12:02:20.326Z,45
2016-04-16T12:03:20.521Z,55
2016-04-16T12:04:20.514Z,60
2016-04-16T12:05:20.429Z,65
2016-04-16T12:06:20.527Z,65
2016-04-16T12:07:20.329Z,70
2016-04-16T12:08:20.553Z,70
2016-04-16T12:09:20.557Z,60
2016-04-16T12:10:20.563Z,60
2016-04-16T12:11:20.566Z,55
2016-04-16T12:12:20.570Z,45
2016-04-16T12:13:20.730Z,45
2016-04-16T12:14:20.764Z,45
2016-04-16T12:15:20.674Z,35
2016-04-16T12:16:20.646Z,40
2016-04-16T12:17:20.711Z,30
2016-04-16T12:18:20.715Z,30
2016-04-16T12:19:20.702Z,30
2016-04-16T12:20:20.768Z,30
2016-04-16T12:21:20.786Z,30
2016-04-16T12:22:20.961Z,30
2016-04-16T12:23:20.885Z,30
2016-04-16T12:24:20.888Z,30
2016-04-16T12:25:20.062Z,25
2016-04-16T12:26:20.925Z,25
2016-04-16T12:27:20.942Z,30
2016-04-16T12:28:20.945Z,30
2016-04-16T12:29:20.948Z,35
2016-04-16T12:30:20.950Z,35
2016-04-16T12:31:20.969Z,40
2016-04-16T12:32:20.988Z,35
2016-04-16T12:33:20.975Z,35
2016-04-16T12:34:21.102Z,40
2016-04-16T12:35:21.151Z,45
2016-04-16T12:36:21.061Z,50
2016-04-16T12:37:21.141Z,50
2016-04-16T12:38:21.176Z,40
2016-04-16T12:39:21.179Z,35
2016-04-16T12:40:21.227Z,30
2016-04-16T12:41:21.230Z,35
2016-04-16T12:42:21.233Z,40
2016-04-16T12:43:21.251Z,45
2016-04-16T12:44:21.254Z,45
2016-04-16T12:45:21.257Z,55
2016-04-16T12:46:21.275Z,60
2016-04-16T12:47:21.278Z,70
2016-04-16T12:48:21.311Z,70
2016-04-16T12:49:21.331Z,65
2016-04-16T12:50:21.364Z,65
2016-04-16T12:51:21.367Z,60
2016-04-16T12:52:21.401Z,50
2016-04-16T12:53:21.419Z,40
2016-04-16T12:54:21.297Z,35
2016-04-16T12:55:21.471Z,45
2016-04-16T12:56:21.520Z,60
2016-04-16T12:57:21.508Z,75
2016-04-16T12:58:21.572Z,70
2016-04-16T12:59:21.685Z,75
2016-04-16T13:00:21.672Z,70
2016-04-16T13:01:21.706Z,75
2016-04-16T13:02:21.740Z,75
2016-04-16T13:03:21.758Z,70
2016-04-16T13:04:21.823Z,60
2016-04-16T13:05:21.716Z,55
2016-04-16T13:06:21.735Z,45
2016-04-16T13:07:21.785Z,35
2016-04-16T13:08:21.802Z,35
2016-04-16T13:09:21.821Z,30
2016-04-16T13:10:21.933Z,35
2016-04-16T13:11:21.935Z,45
2016-04-16T13:12:21.876Z,40
2016-04-16T13:13:21.988Z,45
2016-04-16T13:14:21.990Z,45
2016-04-16T13:15:22.010Z,50
2016-04-16T13:16:22.012Z,60
2016-04-16T13:17:22.014Z,60
2016-04-16T13:18:22.126Z,55
2016-04-16T13:19:22.036Z,55
2016-04-16T13:20:22.070Z,55
2016-04-16T13:21:22.198Z,55
2016-04-16T13:22:22.090Z,40
2016-04-16T13:23:22.109Z,35
2016-04-16T13:24:22.159Z,50
2016-04-16T13:25:22.192Z,60
2016-04-16T13:26:22.273Z,50
2016-04-16T13:27:22.261Z,45
2016-04-16T13:28:22.247Z,50
2016-04-16T13:29:22.281Z,60
2016-04-16T13:30:22.471Z,65
2016-04-16T13:31:22.458Z,65
2016-04-16T13:32:22.477Z,60
2016-04-16T13:33:22.463Z,55
2016-04-16T13:34:22.497Z,50
2016-04-16T13:35:22.500Z,60
2016-04-16T13:36:22.644Z,70
2016-04-16T13:37:22.647Z,60
2016-04-16T13:38:22.649Z,45
2016-04-16T13:39:22.730Z,45
2016-04-16T13:40:22.623Z,45
2016-04-16T13:41:22.626Z,45
2016-04-16T13:42:22.707Z,45
2016-04-16T13:43:22.678Z,40
2016-04-16T13:44:22.713Z,40
2016-04-16T13:45:22.668Z,40
2016-04-16T13:46:22.921Z,40
2016-04-16T13:47:22.705Z,40
2016-04-16T13:48:22.801Z,40
2016-04-16T13:49:22.976Z,40
2016-04-16T13:50:22.853Z,45
2016-04-16T13:51:22.856Z,45
2016-04-16T13:52:22.858Z,45
2016-04-16T13:53:22.533Z,45
2016-04-16T13:54:22.880Z,50
2016-04-16T13:55:22.897Z,50
2016-04-16T13:56:23.025Z,40
2016-04-16T13:57:23.028Z,30
2016-04-16T13:58:23.062Z,25
2016-04-16T13:59:23.065Z,20
2016-04-16T14:00:23.083Z,20
2016-04-16T14:01:23.117Z,20
2016-04-16T14:02:23.136Z,25
2016-04-16T14:03:23.107Z,30
2016-04-16T14:04:23.141Z,25
2016-04-16T14:05:23.159Z,25
2016-04-16T14:06:23.193Z,20
2016-04-16T14:07:23.180Z,15
2016-04-16T14:08:23.214Z,25
2016-04-16T14:09:23.232Z,30
2016-04-16T14:10:23.423Z,30
2016-04-16T14:11:23.301Z,35
2016-04-16T14:12:23.303Z,30
2016-04-16T14:13:23.337Z,30
2016-04-16T14:14:23.354Z,30
2016-04-16T14:15:23.561Z,25
2016-04-16T14:16:23.392Z,30
2016-04-16T14:17:23.363Z,45
2016-04-16T14:18:23.459Z,40
2016-04-16T14:19:23.572Z,40
2016-04-16T14:20:23.496Z,30
2016-04-16T14:21:23.639Z,25
2016-04-16T14:22:23.564Z,25
2016-04-16T14:23:23.567Z,20
2016-04-16T14:24:23.601Z,20
2016-04-16T14:25:23.619Z,35
2016-04-16T14:26:23.637Z,30
2016-04-16T14:27:23.844Z,20
2016-04-16T14:28:23.768Z,20